sensor_id;sensor_type;location;lat;lon;timestamp;temperature;humidity
15900;DHT22;8048;50.644;6.184;2022-08-21T00:01:55;11.50;99.90
15900;DHT22;8048;50.644;6.184;2022-08-21T00:04:21;11.50;99.90
15900;DHT22;8048;50.644;6.184;2022-08-21T00:06:47;11.50;99.90
15900;DHT22;8048;50.644;6.184;2022-08-21T00:09:12;11.50;99.90
15900;DHT22;8048;50.644;6.184;2022-08-21T00:11:39;11.40;99.90
15900;DHT22;8048;50.644;6.184;2022-08-21T00:14:07;11.40;99.90
15900;DHT22;8048;50.644;6.184;2022-08-21T00:16:34;11.30;99.90
15900;DHT22;8048;50.644;6.184;2022-08-21T00:18:59;11.30;99.90
15900;DHT22;8048;50.644;6.184;2022-08-21T00:21:25;11.30;99.90
15900;DHT22;8048;50.644;6.184;2022-08-21T00:23:51;11.20;99.90
15900;DHT22;8048;50.644;6.184;2022-08-21T00:26:17;11.20;99.90
15900;DHT22;8048;50.644;6.184;2022-08-21T00:28:43;11.20;99.90
15900;DHT22;8048;50.644;6.184;2022-08-21T00:31:11;11.10;99.90
15900;DHT22;8048;50.644;6.184;2022-08-21T00:33:36;11.10;99.90
15900;DHT22;8048;50.644;6.184;2022-08-21T00:36:02;11.10;99.90
15900;DHT22;8048;50.644;6.184;2022-08-21T00:38:28;11.00;99.90
15900;DHT22;8048;50.644;6.184;2022-08-21T00:40:57;11.00;99.90
15900;DHT22;8048;50.644;6.184;2022-08-21T00:43:28;11.00;99.90
15900;DHT22;8048;50.644;6.184;2022-08-21T00:45:55;11.00;99.90
15900;DHT22;8048;50.644;6.184;2022-08-21T00:48:21;10.90;99.90
15900;DHT22;8048;50.644;6.184;2022-08-21T00:50:57;10.90;99.90
15900;DHT22;8048;50.644;6.184;2022-08-21T00:53:24;10.80;99.90
15900;DHT22;8048;50.644;6.184;2022-08-21T00:55:51;10.80;99.90
15900;DHT22;8048;50.644;6.184;2022-08-21T00:58:19;10.80;99.90
15900;DHT22;8048;50.644;6.184;2022-08-21T01:00:46;10.80;99.90
15900;DHT22;8048;50.644;6.184;2022-08-21T01:03:16;10.70;99.90
15900;DHT22;8048;50.644;6.184;2022-08-21T01:05:43;10.70;99.90
15900;DHT22;8048;50.644;6.184;2022-08-21T01:08:10;10.70;99.90
15900;DHT22;8048;50.644;6.184;2022-08-21T01:10:36;10.70;99.90
15900;DHT22;8048;50.644;6.184;2022-08-21T01:13:04;10.60;99.90
15900;DHT22;8048;50.644;6.184;2022-08-21T01:15:34;10.60;99.90
15900;DHT22;8048;50.644;6.184;2022-08-21T01:18:02;10.60;99.90
15900;DHT22;8048;50.644;6.184;2022-08-21T01:20:28;10.60;99.90
15900;DHT22;8048;50.644;6.184;2022-08-21T01:22:53;10.50;99.90
15900;DHT22;8048;50.644;6.184;2022-08-21T01:25:19;10.50;99.90
15900;DHT22;8048;50.644;6.184;2022-08-21T01:27:45;10.50;99.90
15900;DHT22;8048;50.644;6.184;2022-08-21T01:30:15;10.40;99.90
15900;DHT22;8048;50.644;6.184;2022-08-21T01:32:41;10.40;99.90
15900;DHT22;8048;50.644;6.184;2022-08-21T01:35:08;10.40;99.90
15900;DHT22;8048;50.644;6.184;2022-08-21T01:37:34;10.40;99.90
15900;DHT22;8048;50.644;6.184;2022-08-21T01:40:00;10.30;99.90
15900;DHT22;8048;50.644;6.184;2022-08-21T01:42:26;10.30;99.90
15900;DHT22;8048;50.644;6.184;2022-08-21T01:44:51;10.30;99.90
15900;DHT22;8048;50.644;6.184;2022-08-21T01:47:18;10.20;99.90
15900;DHT22;8048;50.644;6.184;2022-08-21T01:49:44;10.20;99.90
15900;DHT22;8048;50.644;6.184;2022-08-21T01:52:10;10.30;99.90
15900;DHT22;8048;50.644;6.184;2022-08-21T01:54:37;10.30;99.90
15900;DHT22;8048;50.644;6.184;2022-08-21T01:57:03;10.20;99.90
15900;DHT22;8048;50.644;6.184;2022-08-21T01:59:29;10.20;99.90
15900;DHT22;8048;50.644;6.184;2022-08-21T02:01:55;10.20;99.90
15900;DHT22;8048;50.644;6.184;2022-08-21T02:04:21;10.20;99.90
15900;DHT22;8048;50.644;6.184;2022-08-21T02:06:47;10.10;99.90
15900;DHT22;8048;50.644;6.184;2022-08-21T02:09:13;10.10;99.90
15900;DHT22;8048;50.644;6.184;2022-08-21T02:11:40;10.10;99.90
15900;DHT22;8048;50.644;6.184;2022-08-21T02:14:10;10.00;99.90
15900;DHT22;8048;50.644;6.184;2022-08-21T02:16:37;10.00;99.90
15900;DHT22;8048;50.644;6.184;2022-08-21T02:19:03;9.90;99.90
15900;DHT22;8048;50.644;6.184;2022-08-21T02:21:29;9.90;99.90
15900;DHT22;8048;50.644;6.184;2022-08-21T02:23:55;9.90;99.90
15900;DHT22;8048;50.644;6.184;2022-08-21T02:26:21;9.90;99.90
15900;DHT22;8048;50.644;6.184;2022-08-21T02:28:46;9.80;99.90
15900;DHT22;8048;50.644;6.184;2022-08-21T02:31:12;9.80;99.90
15900;DHT22;8048;50.644;6.184;2022-08-21T02:33:37;9.90;99.90
15900;DHT22;8048;50.644;6.184;2022-08-21T02:36:05;9.90;99.90
15900;DHT22;8048;50.644;6.184;2022-08-21T02:38:32;9.80;99.90
15900;DHT22;8048;50.644;6.184;2022-08-21T02:41:00;9.70;99.90
15900;DHT22;8048;50.644;6.184;2022-08-21T02:43:26;9.70;99.90
15900;DHT22;8048;50.644;6.184;2022-08-21T02:45:54;9.70;99.90
15900;DHT22;8048;50.644;6.184;2022-08-21T02:48:23;9.70;99.90
15900;DHT22;8048;50.644;6.184;2022-08-21T02:50:53;9.70;99.90
15900;DHT22;8048;50.644;6.184;2022-08-21T02:53:19;9.60;99.90
15900;DHT22;8048;50.644;6.184;2022-08-21T02:55:47;9.60;99.90
15900;DHT22;8048;50.644;6.184;2022-08-21T02:58:15;9.60;99.90
15900;DHT22;8048;50.644;6.184;2022-08-21T03:00:42;9.50;99.90
15900;DHT22;8048;50.644;6.184;2022-08-21T03:03:09;9.50;99.90
15900;DHT22;8048;50.644;6.184;2022-08-21T03:05:36;9.50;99.90
15900;DHT22;8048;50.644;6.184;2022-08-21T03:08:07;9.40;99.90
15900;DHT22;8048;50.644;6.184;2022-08-21T03:10:41;9.30;99.90
15900;DHT22;8048;50.644;6.184;2022-08-21T03:13:07;9.20;99.90
15900;DHT22;8048;50.644;6.184;2022-08-21T03:15:33;9.20;99.90
15900;DHT22;8048;50.644;6.184;2022-08-21T03:17:59;9.20;99.90
15900;DHT22;8048;50.644;6.184;2022-08-21T03:20:27;9.30;99.90
15900;DHT22;8048;50.644;6.184;2022-08-21T03:22:54;9.30;99.90
15900;DHT22;8048;50.644;6.184;2022-08-21T03:25:24;9.20;99.90
15900;DHT22;8048;50.644;6.184;2022-08-21T03:27:50;9.20;99.90
15900;DHT22;8048;50.644;6.184;2022-08-21T03:30:17;9.20;99.90
15900;DHT22;8048;50.644;6.184;2022-08-21T03:32:44;9.30;99.90
15900;DHT22;8048;50.644;6.184;2022-08-21T03:35:09;9.30;99.90
15900;DHT22;8048;50.644;6.184;2022-08-21T03:37:35;9.20;99.90
15900;DHT22;8048;50.644;6.184;2022-08-21T03:40:03;9.20;99.90
15900;DHT22;8048;50.644;6.184;2022-08-21T03:42:29;9.20;99.90
15900;DHT22;8048;50.644;6.184;2022-08-21T03:44:54;9.30;99.90
15900;DHT22;8048;50.644;6.184;2022-08-21T03:47:20;9.20;99.90
15900;DHT22;8048;50.644;6.184;2022-08-21T03:49:47;9.20;99.90
15900;DHT22;8048;50.644;6.184;2022-08-21T03:52:13;9.20;99.90
15900;DHT22;8048;50.644;6.184;2022-08-21T03:54:38;9.20;99.90
15900;DHT22;8048;50.644;6.184;2022-08-21T03:57:06;9.20;99.90
15900;DHT22;8048;50.644;6.184;2022-08-21T03:59:32;9.20;99.90
15900;DHT22;8048;50.644;6.184;2022-08-21T04:02:00;9.20;99.90
15900;DHT22;8048;50.644;6.184;2022-08-21T04:04:27;9.20;99.90
15900;DHT22;8048;50.644;6.184;2022-08-21T04:06:52;9.10;99.90
15900;DHT22;8048;50.644;6.184;2022-08-21T04:09:19;9.10;99.90
15900;DHT22;8048;50.644;6.184;2022-08-21T04:11:44;9.10;99.90
15900;DHT22;8048;50.644;6.184;2022-08-21T04:14:11;9.00;99.90
15900;DHT22;8048;50.644;6.184;2022-08-21T04:16:37;9.00;99.90
15900;DHT22;8048;50.644;6.184;2022-08-21T04:19:03;9.00;99.90
15900;DHT22;8048;50.644;6.184;2022-08-21T04:21:29;9.00;99.90
15900;DHT22;8048;50.644;6.184;2022-08-21T04:23:55;8.90;99.90
15900;DHT22;8048;50.644;6.184;2022-08-21T04:26:21;8.90;99.90
15900;DHT22;8048;50.644;6.184;2022-08-21T04:28:47;8.90;99.90
15900;DHT22;8048;50.644;6.184;2022-08-21T04:31:12;8.90;99.90
15900;DHT22;8048;50.644;6.184;2022-08-21T04:33:38;8.90;99.90
15900;DHT22;8048;50.644;6.184;2022-08-21T04:36:04;8.90;99.90
15900;DHT22;8048;50.644;6.184;2022-08-21T04:38:30;8.80;99.90
15900;DHT22;8048;50.644;6.184;2022-08-21T04:40:57;8.80;99.90
15900;DHT22;8048;50.644;6.184;2022-08-21T04:43:23;8.80;99.90
15900;DHT22;8048;50.644;6.184;2022-08-21T04:45:50;8.80;99.90
15900;DHT22;8048;50.644;6.184;2022-08-21T04:48:21;8.80;99.90
15900;DHT22;8048;50.644;6.184;2022-08-21T04:51:04;8.80;99.90
15900;DHT22;8048;50.644;6.184;2022-08-21T04:56:08;8.70;99.90
15900;DHT22;8048;50.644;6.184;2022-08-21T04:58:36;8.80;99.90
15900;DHT22;8048;50.644;6.184;2022-08-21T05:01:04;8.80;99.90
15900;DHT22;8048;50.644;6.184;2022-08-21T05:03:33;8.70;99.90
15900;DHT22;8048;50.644;6.184;2022-08-21T05:06:00;8.80;99.90
15900;DHT22;8048;50.644;6.184;2022-08-21T05:08:27;8.80;99.90
15900;DHT22;8048;50.644;6.184;2022-08-21T05:10:53;8.80;99.90
15900;DHT22;8048;50.644;6.184;2022-08-21T05:13:19;8.80;99.90
15900;DHT22;8048;50.644;6.184;2022-08-21T05:15:46;8.90;99.90
15900;DHT22;8048;50.644;6.184;2022-08-21T05:18:12;8.80;99.90
15900;DHT22;8048;50.644;6.184;2022-08-21T05:20:38;8.90;99.90
15900;DHT22;8048;50.644;6.184;2022-08-21T05:23:12;8.90;99.90
15900;DHT22;8048;50.644;6.184;2022-08-21T05:25:38;9.00;99.90
15900;DHT22;8048;50.644;6.184;2022-08-21T05:28:04;9.00;99.90
15900;DHT22;8048;50.644;6.184;2022-08-21T05:30:30;9.10;99.90
15900;DHT22;8048;50.644;6.184;2022-08-21T05:32:57;9.10;99.90
15900;DHT22;8048;50.644;6.184;2022-08-21T05:35:23;9.20;99.90
15900;DHT22;8048;50.644;6.184;2022-08-21T05:37:49;9.20;99.90
15900;DHT22;8048;50.644;6.184;2022-08-21T05:40:14;9.30;99.90
15900;DHT22;8048;50.644;6.184;2022-08-21T05:42:40;9.30;99.90
15900;DHT22;8048;50.644;6.184;2022-08-21T05:45:06;9.40;99.90
15900;DHT22;8048;50.644;6.184;2022-08-21T05:47:32;9.50;99.90
15900;DHT22;8048;50.644;6.184;2022-08-21T05:49:57;9.60;99.90
15900;DHT22;8048;50.644;6.184;2022-08-21T05:52:23;9.70;99.90
15900;DHT22;8048;50.644;6.184;2022-08-21T05:54:49;9.80;99.90
15900;DHT22;8048;50.644;6.184;2022-08-21T05:57:15;9.90;99.90
15900;DHT22;8048;50.644;6.184;2022-08-21T05:59:41;9.90;99.90
15900;DHT22;8048;50.644;6.184;2022-08-21T06:02:08;10.10;99.90
15900;DHT22;8048;50.644;6.184;2022-08-21T06:04:38;10.20;99.90
15900;DHT22;8048;50.644;6.184;2022-08-21T06:07:04;10.20;99.90
15900;DHT22;8048;50.644;6.184;2022-08-21T06:09:30;10.40;99.90
15900;DHT22;8048;50.644;6.184;2022-08-21T06:11:55;10.50;99.90
15900;DHT22;8048;50.644;6.184;2022-08-21T06:14:21;10.70;99.90
15900;DHT22;8048;50.644;6.184;2022-08-21T06:16:46;10.80;99.90
15900;DHT22;8048;50.644;6.184;2022-08-21T06:19:12;10.90;99.90
15900;DHT22;8048;50.644;6.184;2022-08-21T06:21:38;11.00;99.90
15900;DHT22;8048;50.644;6.184;2022-08-21T06:24:04;11.10;99.90
15900;DHT22;8048;50.644;6.184;2022-08-21T06:26:30;11.20;99.90
15900;DHT22;8048;50.644;6.184;2022-08-21T06:28:56;11.30;99.90
15900;DHT22;8048;50.644;6.184;2022-08-21T06:31:25;11.40;99.90
15900;DHT22;8048;50.644;6.184;2022-08-21T06:33:52;11.60;99.90
15900;DHT22;8048;50.644;6.184;2022-08-21T06:36:18;11.70;99.90
15900;DHT22;8048;50.644;6.184;2022-08-21T06:38:45;11.80;99.90
15900;DHT22;8048;50.644;6.184;2022-08-21T06:41:11;12.00;99.90
15900;DHT22;8048;50.644;6.184;2022-08-21T06:43:36;12.10;99.90
15900;DHT22;8048;50.644;6.184;2022-08-21T06:46:02;12.20;99.90
15900;DHT22;8048;50.644;6.184;2022-08-21T06:48:28;12.40;99.90
15900;DHT22;8048;50.644;6.184;2022-08-21T06:50:55;12.50;99.90
15900;DHT22;8048;50.644;6.184;2022-08-21T06:53:21;12.60;99.90
15900;DHT22;8048;50.644;6.184;2022-08-21T06:55:47;12.70;99.90
15900;DHT22;8048;50.644;6.184;2022-08-21T06:58:13;12.90;99.90
15900;DHT22;8048;50.644;6.184;2022-08-21T07:00:41;13.20;99.90
15900;DHT22;8048;50.644;6.184;2022-08-21T07:03:07;13.40;99.90
15900;DHT22;8048;50.644;6.184;2022-08-21T07:05:40;13.50;99.90
15900;DHT22;8048;50.644;6.184;2022-08-21T07:08:06;13.70;99.90
15900;DHT22;8048;50.644;6.184;2022-08-21T07:10:32;13.80;99.90
15900;DHT22;8048;50.644;6.184;2022-08-21T07:12:57;14.00;99.90
15900;DHT22;8048;50.644;6.184;2022-08-21T07:15:23;14.20;99.90
15900;DHT22;8048;50.644;6.184;2022-08-21T07:17:48;14.30;99.90
15900;DHT22;8048;50.644;6.184;2022-08-21T07:20:14;14.50;99.90
15900;DHT22;8048;50.644;6.184;2022-08-21T07:22:40;14.70;99.90
15900;DHT22;8048;50.644;6.184;2022-08-21T07:25:07;14.80;99.90
15900;DHT22;8048;50.644;6.184;2022-08-21T07:27:32;14.90;99.90
15900;DHT22;8048;50.644;6.184;2022-08-21T07:29:59;15.00;99.90
15900;DHT22;8048;50.644;6.184;2022-08-21T07:32:25;15.10;99.90
15900;DHT22;8048;50.644;6.184;2022-08-21T07:34:50;15.20;99.90
15900;DHT22;8048;50.644;6.184;2022-08-21T07:37:16;15.40;99.90
15900;DHT22;8048;50.644;6.184;2022-08-21T07:39:42;15.60;99.90
15900;DHT22;8048;50.644;6.184;2022-08-21T07:42:07;15.70;99.90
15900;DHT22;8048;50.644;6.184;2022-08-21T07:44:33;15.80;99.90
15900;DHT22;8048;50.644;6.184;2022-08-21T07:47:00;16.00;99.90
15900;DHT22;8048;50.644;6.184;2022-08-21T07:49:27;16.10;99.90
15900;DHT22;8048;50.644;6.184;2022-08-21T07:51:52;16.20;99.90
15900;DHT22;8048;50.644;6.184;2022-08-21T07:54:18;16.30;99.90
15900;DHT22;8048;50.644;6.184;2022-08-21T07:56:43;16.40;99.70
15900;DHT22;8048;50.644;6.184;2022-08-21T07:59:09;16.70;99.40
15900;DHT22;8048;50.644;6.184;2022-08-21T08:01:34;16.90;98.70
15900;DHT22;8048;50.644;6.184;2022-08-21T08:04:00;17.00;98.10
15900;DHT22;8048;50.644;6.184;2022-08-21T08:06:25;17.20;97.60
15900;DHT22;8048;50.644;6.184;2022-08-21T08:08:51;17.30;97.60
15900;DHT22;8048;50.644;6.184;2022-08-21T08:11:17;17.40;96.90
15900;DHT22;8048;50.644;6.184;2022-08-21T08:13:46;17.40;96.80
15900;DHT22;8048;50.644;6.184;2022-08-21T08:16:12;17.60;96.60
15900;DHT22;8048;50.644;6.184;2022-08-21T08:18:38;17.70;96.30
15900;DHT22;8048;50.644;6.184;2022-08-21T08:21:04;17.80;95.80
15900;DHT22;8048;50.644;6.184;2022-08-21T08:23:31;18.00;95.80
15900;DHT22;8048;50.644;6.184;2022-08-21T08:25:57;18.10;95.40
15900;DHT22;8048;50.644;6.184;2022-08-21T08:28:23;18.20;95.30
15900;DHT22;8048;50.644;6.184;2022-08-21T08:30:49;18.40;95.50
15900;DHT22;8048;50.644;6.184;2022-08-21T08:33:15;18.50;94.70
15900;DHT22;8048;50.644;6.184;2022-08-21T08:35:46;18.70;94.20
15900;DHT22;8048;50.644;6.184;2022-08-21T08:38:13;18.80;93.50
15900;DHT22;8048;50.644;6.184;2022-08-21T08:41:14;18.90;93.40
15900;DHT22;8048;50.644;6.184;2022-08-21T08:43:44;19.10;93.60
15900;DHT22;8048;50.644;6.184;2022-08-21T08:46:16;19.30;93.20
15900;DHT22;8048;50.644;6.184;2022-08-21T08:51:55;19.80;92.90
15900;DHT22;8048;50.644;6.184;2022-08-21T08:54:38;20.00;92.10
15900;DHT22;8048;50.644;6.184;2022-08-21T08:57:10;20.30;91.40
15900;DHT22;8048;50.644;6.184;2022-08-21T08:59:45;20.40;90.80
15900;DHT22;8048;50.644;6.184;2022-08-21T09:02:14;20.60;90.70
15900;DHT22;8048;50.644;6.184;2022-08-21T09:04:40;20.80;90.00
15900;DHT22;8048;50.644;6.184;2022-08-21T09:12:25;21.60;86.90
15900;DHT22;8048;50.644;6.184;2022-08-21T09:23:40;22.40;84.80
15900;DHT22;8048;50.644;6.184;2022-08-21T09:26:16;22.50;82.10
15900;DHT22;8048;50.644;6.184;2022-08-21T09:28:43;22.50;82.90
15900;DHT22;8048;50.644;6.184;2022-08-21T09:33:46;23.00;82.60
15900;DHT22;8048;50.644;6.184;2022-08-21T09:36:11;23.30;80.70
15900;DHT22;8048;50.644;6.184;2022-08-21T09:38:37;23.40;76.30
15900;DHT22;8048;50.644;6.184;2022-08-21T09:41:06;23.90;78.80
15900;DHT22;8048;50.644;6.184;2022-08-21T09:43:33;24.10;76.70
15900;DHT22;8048;50.644;6.184;2022-08-21T09:48:27;24.70;73.60
15900;DHT22;8048;50.644;6.184;2022-08-21T09:51:09;24.90;73.40
15900;DHT22;8048;50.644;6.184;2022-08-21T09:53:41;25.00;71.90
15900;DHT22;8048;50.644;6.184;2022-08-21T09:59:14;25.10;68.80
15900;DHT22;8048;50.644;6.184;2022-08-21T10:01:50;25.30;71.20
15900;DHT22;8048;50.644;6.184;2022-08-21T10:04:24;25.10;66.30
15900;DHT22;8048;50.644;6.184;2022-08-21T10:06:52;25.40;67.80
15900;DHT22;8048;50.644;6.184;2022-08-21T10:09:19;25.50;68.00
15900;DHT22;8048;50.644;6.184;2022-08-21T10:11:59;25.90;69.70
15900;DHT22;8048;50.644;6.184;2022-08-21T10:14:47;26.00;69.10
15900;DHT22;8048;50.644;6.184;2022-08-21T10:17:28;26.10;66.20
15900;DHT22;8048;50.644;6.184;2022-08-21T10:22:29;25.90;66.20
15900;DHT22;8048;50.644;6.184;2022-08-21T10:27:57;26.50;64.40
15900;DHT22;8048;50.644;6.184;2022-08-21T10:33:13;27.10;65.20
15900;DHT22;8048;50.644;6.184;2022-08-21T10:41:04;27.90;59.80
15900;DHT22;8048;50.644;6.184;2022-08-21T10:49:04;28.40;57.80
15900;DHT22;8048;50.644;6.184;2022-08-21T10:51:42;28.60;57.80
15900;DHT22;8048;50.644;6.184;2022-08-21T10:57:02;28.70;54.60
15900;DHT22;8048;50.644;6.184;2022-08-21T10:59:52;29.10;56.30
15900;DHT22;8048;50.644;6.184;2022-08-21T11:02:37;29.70;55.60
15900;DHT22;8048;50.644;6.184;2022-08-21T11:05:46;30.10;54.50
15900;DHT22;8048;50.644;6.184;2022-08-21T11:08:18;30.30;54.40
15900;DHT22;8048;50.644;6.184;2022-08-21T11:10:59;30.90;54.20
15900;DHT22;8048;50.644;6.184;2022-08-21T11:13:43;31.00;52.40
15900;DHT22;8048;50.644;6.184;2022-08-21T11:19:10;31.90;52.30
15900;DHT22;8048;50.644;6.184;2022-08-21T11:24:40;31.70;51.60
15900;DHT22;8048;50.644;6.184;2022-08-21T11:27:23;31.80;53.00
15900;DHT22;8048;50.644;6.184;2022-08-21T11:29:56;32.20;52.00
15900;DHT22;8048;50.644;6.184;2022-08-21T11:43:45;33.40;48.70
15900;DHT22;8048;50.644;6.184;2022-08-21T11:49:38;33.30;48.60
15900;DHT22;8048;50.644;6.184;2022-08-21T11:55:11;34.40;47.10
15900;DHT22;8048;50.644;6.184;2022-08-21T11:58:06;34.20;47.30
15900;DHT22;8048;50.644;6.184;2022-08-21T12:00:41;33.80;48.20
15900;DHT22;8048;50.644;6.184;2022-08-21T12:03:25;33.10;48.00
15900;DHT22;8048;50.644;6.184;2022-08-21T12:06:12;33.20;49.00
15900;DHT22;8048;50.644;6.184;2022-08-21T12:08:43;32.90;48.50
15900;DHT22;8048;50.644;6.184;2022-08-21T12:13:56;33.40;48.20
15900;DHT22;8048;50.644;6.184;2022-08-21T12:16:37;33.60;47.30
15900;DHT22;8048;50.644;6.184;2022-08-21T12:19:12;33.90;46.90
15900;DHT22;8048;50.644;6.184;2022-08-21T12:29:37;34.90;47.10
15900;DHT22;8048;50.644;6.184;2022-08-21T12:32:23;34.70;45.60
15900;DHT22;8048;50.644;6.184;2022-08-21T12:35:14;34.20;46.40
15900;DHT22;8048;50.644;6.184;2022-08-21T12:37:44;33.60;45.20
15900;DHT22;8048;50.644;6.184;2022-08-21T12:40:25;33.10;46.50
15900;DHT22;8048;50.644;6.184;2022-08-21T12:42:56;32.90;47.50
15900;DHT22;8048;50.644;6.184;2022-08-21T12:45:31;32.90;46.60
15900;DHT22;8048;50.644;6.184;2022-08-21T12:48:02;33.20;47.10
15900;DHT22;8048;50.644;6.184;2022-08-21T12:50:41;34.00;46.90
15900;DHT22;8048;50.644;6.184;2022-08-21T12:55:43;34.80;44.20
15900;DHT22;8048;50.644;6.184;2022-08-21T12:58:23;34.90;45.80
15900;DHT22;8048;50.644;6.184;2022-08-21T13:01:01;35.70;45.20
15900;DHT22;8048;50.644;6.184;2022-08-21T13:03:28;35.80;43.60
15900;DHT22;8048;50.644;6.184;2022-08-21T13:05:54;36.10;44.10
15900;DHT22;8048;50.644;6.184;2022-08-21T13:08:21;36.30;43.80
15900;DHT22;8048;50.644;6.184;2022-08-21T13:11:05;36.80;43.80
15900;DHT22;8048;50.644;6.184;2022-08-21T13:13:33;36.80;43.50
15900;DHT22;8048;50.644;6.184;2022-08-21T13:16:08;36.40;44.00
15900;DHT22;8048;50.644;6.184;2022-08-21T13:18:53;36.70;43.20
15900;DHT22;8048;50.644;6.184;2022-08-21T13:21:19;37.20;43.60
15900;DHT22;8048;50.644;6.184;2022-08-21T13:23:46;37.40;42.20
15900;DHT22;8048;50.644;6.184;2022-08-21T13:26:21;37.30;42.50
15900;DHT22;8048;50.644;6.184;2022-08-21T13:28:48;37.30;42.20
15900;DHT22;8048;50.644;6.184;2022-08-21T13:31:27;36.40;41.90
15900;DHT22;8048;50.644;6.184;2022-08-21T13:33:55;35.80;41.40
15900;DHT22;8048;50.644;6.184;2022-08-21T13:36:26;34.50;43.60
15900;DHT22;8048;50.644;6.184;2022-08-21T13:38:53;33.80;42.90
15900;DHT22;8048;50.644;6.184;2022-08-21T13:41:28;33.30;44.50
15900;DHT22;8048;50.644;6.184;2022-08-21T13:46:31;32.50;45.10
15900;DHT22;8048;50.644;6.184;2022-08-21T13:49:03;32.40;45.30
15900;DHT22;8048;50.644;6.184;2022-08-21T13:51:30;32.20;45.20
15900;DHT22;8048;50.644;6.184;2022-08-21T13:53:56;32.00;46.10
15900;DHT22;8048;50.644;6.184;2022-08-21T13:56:33;31.90;46.60
15900;DHT22;8048;50.644;6.184;2022-08-21T13:59:06;31.40;45.90
15900;DHT22;8048;50.644;6.184;2022-08-21T14:01:49;30.80;47.00
15900;DHT22;8048;50.644;6.184;2022-08-21T14:04:20;30.60;46.30
15900;DHT22;8048;50.644;6.184;2022-08-21T14:06:47;30.30;46.20
15900;DHT22;8048;50.644;6.184;2022-08-21T14:09:31;30.10;47.10
15900;DHT22;8048;50.644;6.184;2022-08-21T14:11:58;29.90;47.30
15900;DHT22;8048;50.644;6.184;2022-08-21T14:14:31;29.70;47.70
15900;DHT22;8048;50.644;6.184;2022-08-21T14:17:02;29.60;47.10
15900;DHT22;8048;50.644;6.184;2022-08-21T14:22:28;30.00;48.20
15900;DHT22;8048;50.644;6.184;2022-08-21T14:25:07;30.30;47.10
15900;DHT22;8048;50.644;6.184;2022-08-21T14:27:35;30.70;47.10
15900;DHT22;8048;50.644;6.184;2022-08-21T14:30:12;31.00;46.20
15900;DHT22;8048;50.644;6.184;2022-08-21T14:32:40;31.50;46.40
15900;DHT22;8048;50.644;6.184;2022-08-21T14:35:06;32.00;46.10
15900;DHT22;8048;50.644;6.184;2022-08-21T14:37:32;32.10;45.20
15900;DHT22;8048;50.644;6.184;2022-08-21T14:39:58;32.00;46.00
15900;DHT22;8048;50.644;6.184;2022-08-21T14:42:24;31.50;46.10
15900;DHT22;8048;50.644;6.184;2022-08-21T14:44:51;31.60;45.80
15900;DHT22;8048;50.644;6.184;2022-08-21T14:47:16;31.60;45.60
15900;DHT22;8048;50.644;6.184;2022-08-21T14:49:42;31.70;45.90
15900;DHT22;8048;50.644;6.184;2022-08-21T14:52:08;31.40;46.10
15900;DHT22;8048;50.644;6.184;2022-08-21T14:54:34;31.10;46.20
15900;DHT22;8048;50.644;6.184;2022-08-21T14:57:06;30.90;46.40
15900;DHT22;8048;50.644;6.184;2022-08-21T14:59:32;30.60;46.50
15900;DHT22;8048;50.644;6.184;2022-08-21T15:01:59;30.30;47.20
15900;DHT22;8048;50.644;6.184;2022-08-21T15:04:24;30.00;47.30
15900;DHT22;8048;50.644;6.184;2022-08-21T15:06:50;29.70;47.60
15900;DHT22;8048;50.644;6.184;2022-08-21T15:09:16;29.10;48.10
15900;DHT22;8048;50.644;6.184;2022-08-21T15:11:41;28.80;48.70
15900;DHT22;8048;50.644;6.184;2022-08-21T15:14:08;28.70;48.80
15900;DHT22;8048;50.644;6.184;2022-08-21T15:16:36;28.50;49.30
15900;DHT22;8048;50.644;6.184;2022-08-21T15:19:02;28.30;50.20
15900;DHT22;8048;50.644;6.184;2022-08-21T15:21:27;28.20;49.80
15900;DHT22;8048;50.644;6.184;2022-08-21T15:23:53;28.10;50.20
15900;DHT22;8048;50.644;6.184;2022-08-21T15:26:20;27.70;50.30
15900;DHT22;8048;50.644;6.184;2022-08-21T15:28:47;27.60;50.40
15900;DHT22;8048;50.644;6.184;2022-08-21T15:31:12;27.50;50.70
15900;DHT22;8048;50.644;6.184;2022-08-21T15:33:38;27.50;51.50
15900;DHT22;8048;50.644;6.184;2022-08-21T15:36:03;27.30;50.70
15900;DHT22;8048;50.644;6.184;2022-08-21T15:38:29;27.30;51.50
15900;DHT22;8048;50.644;6.184;2022-08-21T15:40:55;27.20;51.70
15900;DHT22;8048;50.644;6.184;2022-08-21T15:43:29;27.10;51.40
15900;DHT22;8048;50.644;6.184;2022-08-21T15:45:57;26.80;51.30
15900;DHT22;8048;50.644;6.184;2022-08-21T15:48:23;26.70;51.40
15900;DHT22;8048;50.644;6.184;2022-08-21T15:50:49;26.80;51.70
15900;DHT22;8048;50.644;6.184;2022-08-21T15:53:14;26.50;51.50
15900;DHT22;8048;50.644;6.184;2022-08-21T15:55:40;26.50;52.30
15900;DHT22;8048;50.644;6.184;2022-08-21T15:58:07;26.40;52.40
15900;DHT22;8048;50.644;6.184;2022-08-21T16:00:36;26.10;53.00
15900;DHT22;8048;50.644;6.184;2022-08-21T16:03:04;26.10;53.40
15900;DHT22;8048;50.644;6.184;2022-08-21T16:05:30;25.80;53.00
15900;DHT22;8048;50.644;6.184;2022-08-21T16:07:57;25.50;53.00
15900;DHT22;8048;50.644;6.184;2022-08-21T16:10:23;25.50;53.60
15900;DHT22;8048;50.644;6.184;2022-08-21T16:12:56;25.40;53.60
15900;DHT22;8048;50.644;6.184;2022-08-21T16:15:23;25.40;54.20
15900;DHT22;8048;50.644;6.184;2022-08-21T16:17:49;25.40;54.10
15900;DHT22;8048;50.644;6.184;2022-08-21T16:20:24;25.40;54.40
15900;DHT22;8048;50.644;6.184;2022-08-21T16:22:50;25.40;54.50
15900;DHT22;8048;50.644;6.184;2022-08-21T16:25:16;25.50;54.90
15900;DHT22;8048;50.644;6.184;2022-08-21T16:27:44;25.60;54.70
15900;DHT22;8048;50.644;6.184;2022-08-21T16:30:11;25.80;54.50
15900;DHT22;8048;50.644;6.184;2022-08-21T16:32:37;25.80;54.50
15900;DHT22;8048;50.644;6.184;2022-08-21T16:35:03;25.80;54.80
15900;DHT22;8048;50.644;6.184;2022-08-21T16:37:29;25.80;54.40
15900;DHT22;8048;50.644;6.184;2022-08-21T16:39:54;25.90;54.80
15900;DHT22;8048;50.644;6.184;2022-08-21T16:42:23;25.90;54.50
15900;DHT22;8048;50.644;6.184;2022-08-21T16:44:50;25.80;54.30
15900;DHT22;8048;50.644;6.184;2022-08-21T16:47:16;25.70;54.30
15900;DHT22;8048;50.644;6.184;2022-08-21T16:49:42;25.60;54.80
15900;DHT22;8048;50.644;6.184;2022-08-21T16:52:08;25.60;54.80
15900;DHT22;8048;50.644;6.184;2022-08-21T16:54:33;25.50;54.70
15900;DHT22;8048;50.644;6.184;2022-08-21T16:56:59;25.40;54.80
15900;DHT22;8048;50.644;6.184;2022-08-21T16:59:25;25.30;54.70
15900;DHT22;8048;50.644;6.184;2022-08-21T17:01:52;25.20;54.90
15900;DHT22;8048;50.644;6.184;2022-08-21T17:04:18;25.10;55.40
15900;DHT22;8048;50.644;6.184;2022-08-21T17:06:45;25.00;55.40
15900;DHT22;8048;50.644;6.184;2022-08-21T17:09:11;24.80;55.40
15900;DHT22;8048;50.644;6.184;2022-08-21T17:11:40;24.70;55.60
15900;DHT22;8048;50.644;6.184;2022-08-21T17:14:09;24.50;55.90
15900;DHT22;8048;50.644;6.184;2022-08-21T17:16:37;24.40;55.90
15900;DHT22;8048;50.644;6.184;2022-08-21T17:19:03;24.20;55.70
15900;DHT22;8048;50.644;6.184;2022-08-21T17:21:30;24.10;55.80
15900;DHT22;8048;50.644;6.184;2022-08-21T17:23:56;24.00;56.50
15900;DHT22;8048;50.644;6.184;2022-08-21T17:26:22;23.90;56.90
15900;DHT22;8048;50.644;6.184;2022-08-21T17:28:48;23.90;57.60
15900;DHT22;8048;50.644;6.184;2022-08-21T17:31:14;23.80;58.10